Hixson, Tennessee
Current Conditions -  °F | °C
As of 7:53 AM on Sunday 23 Nov 2014 (Local Time) from KCHA Reporting Station
Light Rain Light Rain  
Wind Chill: 51°   Ceiling: 900
Heat Index: 51°   Visibility: 2mi
Dew Point: 49°   Wind: 5mph
Humidity: 92%   Direction: 360°N
Pressure: 30"   Gusts: NA
Location:  35.14°N, 85.23°W
Report Text: KCHA 231253Z 36004KT 2SM -RA BR OVC009 11/09 A3000 RMK AO2 CIG 006V013 SLP157 P0004 T01060094
Loading
Personal Weather Stations






























Interactive Weather Map New forecast layout! Learn more

10-Day Weather Forecast

Advertisements
Track Severe Weather on mobile